<?xml version="1.0" encoding="UTF-8"?>
<gpx version="1.1" creator="2bulu-scraper" xmlns="http://www.topografix.com/GPX/1/1">
  <metadata><name>自贡大安区</name><desc>source: 2bulu.com trackId=77923794; exported 2026-09-01T15:48:51.689Z</desc>
    <bounds minlat="29.3701333" minlon="104.7803161" maxlat="29.3768948" maxlon="104.7868036"/>
    <link href="https://www.2bulu.com/track/t-wlzwQdshR%252B3p%252FR2KBg5Tzw%253D%253D.htm"><text>2bulu 源页面</text></link>
  </metadata>
  <wpt lat="29.3701333" lon="104.78109"><ele>254</ele><name>大安老街
        </name></wpt>
  <wpt lat="29.3702169" lon="104.7810769"><ele>258</ele><name>大安老街
        </name></wpt>
  <wpt lat="29.370619" lon="104.7810548"><ele>288</ele><name>大安老街
        </name></wpt>
  <wpt lat="29.3722914" lon="104.7807711"><ele>298</ele><name>大安街
        </name></wpt>
  <wpt lat="29.3737215" lon="104.7824358"><ele>294</ele><name>大安街
        </name></wpt>
  <wpt lat="29.3733569" lon="104.7823557"><ele>290</ele><name>居乐人家
        </name></wpt>
  <wpt lat="29.3732443" lon="104.7824167"><ele>297</ele><name>居乐人家
        </name></wpt>
  <wpt lat="29.3732223" lon="104.7825299"><ele>298</ele><name>居乐人家
        </name></wpt>
  <wpt lat="29.373195" lon="104.7829103"><ele>288</ele><name>居乐人家
        </name></wpt>
  <wpt lat="29.3738368" lon="104.7828466"><ele>298</ele><name>大安老街
        </name></wpt>
  <wpt lat="29.3741232" lon="104.7831201"><ele>299</ele><name>靠山楼
        </name></wpt>
  <wpt lat="29.3743769" lon="104.7834681"><ele>299</ele><name>大安街
        </name></wpt>
  <wpt lat="29.3747304" lon="104.7838567"><ele>300</ele><name>大安街
        </name></wpt>
  <wpt lat="29.3749871" lon="104.7841924"><ele>300</ele><name>大安街
        </name></wpt>
  <wpt lat="29.3762104" lon="104.7853075"><ele>299</ele><name>汽修厂
        </name></wpt>
  <wpt lat="29.3760816" lon="104.785688"><ele>310</ele><name>汽修厂
        </name></wpt>
  <wpt lat="29.3759762" lon="104.7859543"><ele>309</ele><name>汽修厂
        </name></wpt>
  <wpt lat="29.3759398" lon="104.7863721"><ele>321</ele><name>交警队
        </name></wpt>
  <wpt lat="29.3759398" lon="104.7863721"><ele>321</ele><name>交警队
        </name></wpt>
  <wpt lat="29.3759398" lon="104.7863721"><ele>321</ele><name>交警队
        </name></wpt>
  <wpt lat="29.3757272" lon="104.786337"><ele>330</ele><name>交警队
        </name></wpt>
  <wpt lat="29.375349" lon="104.7864261"><ele>336</ele><name>退役军人事务局
        </name></wpt>
  <wpt lat="29.3752557" lon="104.7864848"><ele>332</ele><name>退役军人事务局
        </name></wpt>
  <trk><name>自贡大安区</name>
      <trkseg>
        <trkpt lat="29.3701333" lon="104.78109"><ele>254.1</ele><time>2026-01-16T18:49:43.000Z</time></trkpt>
        <trkpt lat="29.3702169" lon="104.7810769"><ele>254.1</ele><time>2026-01-16T18:50:08.000Z</time></trkpt>
        <trkpt lat="29.3703151" lon="104.7810494"><ele>255.78</ele><time>2026-01-16T18:50:22.000Z</time></trkpt>
        <trkpt lat="29.3704107" lon="104.7810711"><ele>260.52</ele><time>2026-01-16T18:50:34.000Z</time></trkpt>
        <trkpt lat="29.3705229" lon="104.7810889"><ele>266.45</ele><time>2026-01-16T18:50:44.000Z</time></trkpt>
        <trkpt lat="29.370619" lon="104.7810548"><ele>272.54</ele><time>2026-01-16T18:50:52.000Z</time></trkpt>
        <trkpt lat="29.3707178" lon="104.7810612"><ele>279.27</ele><time>2026-01-16T18:51:04.000Z</time></trkpt>
        <trkpt lat="29.3708227" lon="104.7810684"><ele>286.38</ele><time>2026-01-16T18:51:12.000Z</time></trkpt>
        <trkpt lat="29.370921" lon="104.7811089"><ele>291.25</ele><time>2026-01-16T18:51:20.000Z</time></trkpt>
        <trkpt lat="29.3709876" lon="104.7812099"><ele>293.77</ele><time>2026-01-16T18:51:28.000Z</time></trkpt>
        <trkpt lat="29.3710617" lon="104.7812908"><ele>293.65</ele><time>2026-01-16T18:51:36.000Z</time></trkpt>
        <trkpt lat="29.3711503" lon="104.7813323"><ele>293.2</ele><time>2026-01-16T18:51:44.000Z</time></trkpt>
        <trkpt lat="29.3712473" lon="104.7813608"><ele>292.34</ele><time>2026-01-16T18:51:52.000Z</time></trkpt>
        <trkpt lat="29.3713493" lon="104.7813834"><ele>291.81</ele><time>2026-01-16T18:52:02.000Z</time></trkpt>
        <trkpt lat="29.3714487" lon="104.7814305"><ele>289.74</ele><time>2026-01-16T18:52:10.000Z</time></trkpt>
        <trkpt lat="29.3715503" lon="104.7814463"><ele>287.36</ele><time>2026-01-16T18:52:18.000Z</time></trkpt>
        <trkpt lat="29.3716411" lon="104.7814787"><ele>285.57</ele><time>2026-01-16T18:52:26.000Z</time></trkpt>
        <trkpt lat="29.3716753" lon="104.7815636"><ele>285.5</ele><time>2026-01-16T18:52:34.000Z</time></trkpt>
        <trkpt lat="29.3716879" lon="104.7816788"><ele>286.23</ele><time>2026-01-16T18:52:42.000Z</time></trkpt>
        <trkpt lat="29.3716672" lon="104.7818007"><ele>286.04</ele><time>2026-01-16T18:52:54.000Z</time></trkpt>
        <trkpt lat="29.3716423" lon="104.7819244"><ele>286.28</ele><time>2026-01-16T18:53:04.000Z</time></trkpt>
        <trkpt lat="29.3716217" lon="104.7820416"><ele>286.59</ele><time>2026-01-16T18:53:14.000Z</time></trkpt>
        <trkpt lat="29.3715885" lon="104.7821515"><ele>287.63</ele><time>2026-01-16T18:53:22.000Z</time></trkpt>
        <trkpt lat="29.3715578" lon="104.7822559"><ele>288.56</ele><time>2026-01-16T18:53:28.000Z</time></trkpt>
        <trkpt lat="29.3715204" lon="104.7823549"><ele>289.91</ele><time>2026-01-16T18:53:38.000Z</time></trkpt>
        <trkpt lat="29.3715048" lon="104.7824572"><ele>291.2</ele><time>2026-01-16T18:53:50.000Z</time></trkpt>
        <trkpt lat="29.3715367" lon="104.782345"><ele>289.82</ele><time>2026-01-16T18:54:58.000Z</time></trkpt>
        <trkpt lat="29.3716267" lon="104.7823133"><ele>288.57</ele><time>2026-01-16T18:55:58.000Z</time></trkpt>
        <trkpt lat="29.3715954" lon="104.7822154"><ele>287.07</ele><time>2026-01-16T18:56:38.000Z</time></trkpt>
        <trkpt lat="29.3716057" lon="104.7821018"><ele>287.43</ele><time>2026-01-16T18:56:50.000Z</time></trkpt>
        <trkpt lat="29.3716258" lon="104.7819756"><ele>288.88</ele><time>2026-01-16T18:57:04.000Z</time></trkpt>
        <trkpt lat="29.3716436" lon="104.7818636"><ele>289.92</ele><time>2026-01-16T18:57:16.000Z</time></trkpt>
        <trkpt lat="29.3716492" lon="104.7817486"><ele>289.18</ele><time>2026-01-16T18:57:26.000Z</time></trkpt>
        <trkpt lat="29.3716629" lon="104.7816417"><ele>287.55</ele><time>2026-01-16T18:57:36.000Z</time></trkpt>
        <trkpt lat="29.371669" lon="104.7815343"><ele>286.03</ele><time>2026-01-16T18:57:46.000Z</time></trkpt>
        <trkpt lat="29.371607" lon="104.7814615"><ele>284.94</ele><time>2026-01-16T18:57:56.000Z</time></trkpt>
        <trkpt lat="29.3715107" lon="104.7814138"><ele>285.87</ele><time>2026-01-16T18:58:08.000Z</time></trkpt>
        <trkpt lat="29.3714031" lon="104.7813795"><ele>287.39</ele><time>2026-01-16T18:58:18.000Z</time></trkpt>
        <trkpt lat="29.3712892" lon="104.7813615"><ele>288.68</ele><time>2026-01-16T18:58:28.000Z</time></trkpt>
        <trkpt lat="29.3711769" lon="104.7813512"><ele>289.55</ele><time>2026-01-16T18:58:36.000Z</time></trkpt>
        <trkpt lat="29.3710607" lon="104.7813404"><ele>289.79</ele><time>2026-01-16T18:58:46.000Z</time></trkpt>
        <trkpt lat="29.3709553" lon="104.7813093"><ele>289.75</ele><time>2026-01-16T18:58:54.000Z</time></trkpt>
        <trkpt lat="29.3708644" lon="104.78127"><ele>289.6</ele><time>2026-01-16T18:59:02.000Z</time></trkpt>
        <trkpt lat="29.37079" lon="104.7811996"><ele>290.07</ele><time>2026-01-16T18:59:10.000Z</time></trkpt>
        <trkpt lat="29.3706955" lon="104.7811425"><ele>291.42</ele><time>2026-01-16T18:59:18.000Z</time></trkpt>
        <trkpt lat="29.3705949" lon="104.7811099"><ele>292.57</ele><time>2026-01-16T18:59:24.000Z</time></trkpt>
        <trkpt lat="29.3705011" lon="104.7810703"><ele>293.27</ele><time>2026-01-16T18:59:34.000Z</time></trkpt>
        <trkpt lat="29.3704191" lon="104.7810209"><ele>292.55</ele><time>2026-01-16T18:59:40.000Z</time></trkpt>
        <trkpt lat="29.3703464" lon="104.7809514"><ele>291.5</ele><time>2026-01-16T18:59:50.000Z</time></trkpt>
        <trkpt lat="29.370255" lon="104.7809187"><ele>289.26</ele><time>2026-01-16T18:59:58.000Z</time></trkpt>
        <trkpt lat="29.370161" lon="104.7809121"><ele>287.51</ele><time>2026-01-16T19:00:06.000Z</time></trkpt>
        <trkpt lat="29.3701742" lon="104.7808374"><ele>286</ele><time>2026-01-16T19:00:26.000Z</time></trkpt>
        <trkpt lat="29.3702184" lon="104.7807306"><ele>283.25</ele><time>2026-01-16T19:00:36.000Z</time></trkpt>
        <trkpt lat="29.3702694" lon="104.7806172"><ele>282.84</ele><time>2026-01-16T19:00:44.000Z</time></trkpt>
        <trkpt lat="29.3703132" lon="104.7804896"><ele>282.82</ele><time>2026-01-16T19:00:54.000Z</time></trkpt>
        <trkpt lat="29.3703378" lon="104.7803687"><ele>283.11</ele><time>2026-01-16T19:01:04.000Z</time></trkpt>
        <trkpt lat="29.370413" lon="104.7803161"><ele>284.44</ele><time>2026-01-16T19:01:20.000Z</time></trkpt>
        <trkpt lat="29.3705098" lon="104.7803378"><ele>288.68</ele><time>2026-01-16T19:01:30.000Z</time></trkpt>
        <trkpt lat="29.3706081" lon="104.7803507"><ele>292.82</ele><time>2026-01-16T19:01:38.000Z</time></trkpt>
        <trkpt lat="29.3707119" lon="104.7803646"><ele>294.49</ele><time>2026-01-16T19:01:46.000Z</time></trkpt>
        <trkpt lat="29.3708177" lon="104.7803874"><ele>293.89</ele><time>2026-01-16T19:01:56.000Z</time></trkpt>
        <trkpt lat="29.3709255" lon="104.7804208"><ele>291.92</ele><time>2026-01-16T19:02:06.000Z</time></trkpt>
        <trkpt lat="29.3710197" lon="104.7804518"><ele>290.49</ele><time>2026-01-16T19:02:12.000Z</time></trkpt>
        <trkpt lat="29.3711122" lon="104.7804631"><ele>289.5</ele><time>2026-01-16T19:02:20.000Z</time></trkpt>
        <trkpt lat="29.3712033" lon="104.7804856"><ele>288.81</ele><time>2026-01-16T19:02:28.000Z</time></trkpt>
        <trkpt lat="29.371293" lon="104.7805015"><ele>288.59</ele><time>2026-01-16T19:02:36.000Z</time></trkpt>
        <trkpt lat="29.3713925" lon="104.7805288"><ele>289.33</ele><time>2026-01-16T19:02:46.000Z</time></trkpt>
        <trkpt lat="29.3714857" lon="104.7805378"><ele>289.79</ele><time>2026-01-16T19:02:54.000Z</time></trkpt>
        <trkpt lat="29.3715775" lon="104.780566"><ele>290.48</ele><time>2026-01-16T19:03:02.000Z</time></trkpt>
        <trkpt lat="29.3716727" lon="104.7806145"><ele>290.7</ele><time>2026-01-16T19:03:10.000Z</time></trkpt>
        <trkpt lat="29.371773" lon="104.7806622"><ele>290.32</ele><time>2026-01-16T19:03:18.000Z</time></trkpt>
        <trkpt lat="29.3718788" lon="104.7807045"><ele>290.01</ele><time>2026-01-16T19:03:28.000Z</time></trkpt>
        <trkpt lat="29.37198" lon="104.7807389"><ele>289.62</ele><time>2026-01-16T19:03:36.000Z</time></trkpt>
        <trkpt lat="29.3720753" lon="104.780758"><ele>290.26</ele><time>2026-01-16T19:03:44.000Z</time></trkpt>
        <trkpt lat="29.3721759" lon="104.7807655"><ele>290.92</ele><time>2026-01-16T19:03:54.000Z</time></trkpt>
        <trkpt lat="29.3722914" lon="104.7807711"><ele>291.86</ele><time>2026-01-16T19:04:04.000Z</time></trkpt>
        <trkpt lat="29.3723833" lon="104.7808235"><ele>294.37</ele><time>2026-01-16T19:04:14.000Z</time></trkpt>
        <trkpt lat="29.3724733" lon="104.780875"><ele>294.04</ele><time>2026-01-16T19:04:22.000Z</time></trkpt>
        <trkpt lat="29.3725584" lon="104.7809227"><ele>293.76</ele><time>2026-01-16T19:04:30.000Z</time></trkpt>
        <trkpt lat="29.3726472" lon="104.7809642"><ele>293.01</ele><time>2026-01-16T19:04:38.000Z</time></trkpt>
        <trkpt lat="29.3727317" lon="104.7810168"><ele>292.79</ele><time>2026-01-16T19:04:46.000Z</time></trkpt>
        <trkpt lat="29.3728147" lon="104.7810798"><ele>292.92</ele><time>2026-01-16T19:04:54.000Z</time></trkpt>
        <trkpt lat="29.3728812" lon="104.7811549"><ele>293.6</ele><time>2026-01-16T19:05:00.000Z</time></trkpt>
        <trkpt lat="29.3729557" lon="104.7812424"><ele>294.12</ele><time>2026-01-16T19:05:08.000Z</time></trkpt>
        <trkpt lat="29.373029" lon="104.7813169"><ele>294.32</ele><time>2026-01-16T19:05:16.000Z</time></trkpt>
        <trkpt lat="29.3730971" lon="104.7814155"><ele>294.31</ele><time>2026-01-16T19:05:26.000Z</time></trkpt>
        <trkpt lat="29.3731584" lon="104.7815179"><ele>294.14</ele><time>2026-01-16T19:05:34.000Z</time></trkpt>
        <trkpt lat="29.3732112" lon="104.7816329"><ele>293.82</ele><time>2026-01-16T19:05:44.000Z</time></trkpt>
        <trkpt lat="29.3732628" lon="104.7817404"><ele>293.55</ele><time>2026-01-16T19:05:52.000Z</time></trkpt>
        <trkpt lat="29.3733097" lon="104.781834"><ele>293.4</ele><time>2026-01-16T19:06:00.000Z</time></trkpt>
        <trkpt lat="29.3733591" lon="104.7819234"><ele>293.1</ele><time>2026-01-16T19:06:08.000Z</time></trkpt>
        <trkpt lat="29.3734162" lon="104.7820083"><ele>292.76</ele><time>2026-01-16T19:06:18.000Z</time></trkpt>
        <trkpt lat="29.3734825" lon="104.7820884"><ele>292.56</ele><time>2026-01-16T19:06:24.000Z</time></trkpt>
        <trkpt lat="29.3735405" lon="104.7821697"><ele>292.96</ele><time>2026-01-16T19:06:32.000Z</time></trkpt>
        <trkpt lat="29.3736086" lon="104.7822433"><ele>293.75</ele><time>2026-01-16T19:06:42.000Z</time></trkpt>
        <trkpt lat="29.3736692" lon="104.7823406"><ele>294.68</ele><time>2026-01-16T19:06:50.000Z</time></trkpt>
        <trkpt lat="29.3737215" lon="104.7824358"><ele>294.99</ele><time>2026-01-16T19:07:00.000Z</time></trkpt>
        <trkpt lat="29.3736483" lon="104.7824704"><ele>294.69</ele><time>2026-01-16T19:07:46.000Z</time></trkpt>
        <trkpt lat="29.3735434" lon="104.7824912"><ele>294.52</ele><time>2026-01-16T19:07:52.000Z</time></trkpt>
        <trkpt lat="29.3734492" lon="104.7824324"><ele>294.13</ele><time>2026-01-16T19:08:02.000Z</time></trkpt>
        <trkpt lat="29.3733569" lon="104.7823557"><ele>293.73</ele><time>2026-01-16T19:08:12.000Z</time></trkpt>
        <trkpt lat="29.3732877" lon="104.7823356"><ele>292.12</ele><time>2026-01-16T19:08:26.000Z</time></trkpt>
        <trkpt lat="29.3732443" lon="104.7824167"><ele>291</ele><time>2026-01-16T19:08:42.000Z</time></trkpt>
        <trkpt lat="29.3732223" lon="104.7825299"><ele>293.41</ele><time>2026-01-16T19:09:06.000Z</time></trkpt>
        <trkpt lat="29.3731712" lon="104.7826288"><ele>295.34</ele><time>2026-01-16T19:09:26.000Z</time></trkpt>
        <trkpt lat="29.3732251" lon="104.7827137"><ele>294.76</ele><time>2026-01-16T19:09:36.000Z</time></trkpt>
        <trkpt lat="29.3732214" lon="104.7828079"><ele>293.66</ele><time>2026-01-16T19:09:48.000Z</time></trkpt>
        <trkpt lat="29.373195" lon="104.7829103"><ele>291.7</ele><time>2026-01-16T19:09:58.000Z</time></trkpt>
        <trkpt lat="29.3732193" lon="104.7828623"><ele>289.94</ele><time>2026-01-16T19:10:18.000Z</time></trkpt>
        <trkpt lat="29.3732597" lon="104.782751"><ele>288.41</ele><time>2026-01-16T19:10:26.000Z</time></trkpt>
        <trkpt lat="29.3732527" lon="104.7826107"><ele>287.07</ele><time>2026-01-16T19:10:34.000Z</time></trkpt>
        <trkpt lat="29.3732802" lon="104.7824762"><ele>288.08</ele><time>2026-01-16T19:10:44.000Z</time></trkpt>
        <trkpt lat="29.3733582" lon="104.7823969"><ele>289.03</ele><time>2026-01-16T19:10:56.000Z</time></trkpt>
        <trkpt lat="29.3734498" lon="104.782432"><ele>291.08</ele><time>2026-01-16T19:11:08.000Z</time></trkpt>
        <trkpt lat="29.3735305" lon="104.782511"><ele>292.25</ele><time>2026-01-16T19:11:16.000Z</time></trkpt>
        <trkpt lat="29.3736148" lon="104.7826039"><ele>292.66</ele><time>2026-01-16T19:11:26.000Z</time></trkpt>
        <trkpt lat="29.3736946" lon="104.782692"><ele>292.89</ele><time>2026-01-16T19:11:34.000Z</time></trkpt>
        <trkpt lat="29.3737597" lon="104.7827855"><ele>293.24</ele><time>2026-01-16T19:11:44.000Z</time></trkpt>
        <trkpt lat="29.3738368" lon="104.7828466"><ele>294.04</ele><time>2026-01-16T19:11:54.000Z</time></trkpt>
        <trkpt lat="29.3739242" lon="104.7828908"><ele>295.74</ele><time>2026-01-16T19:12:24.000Z</time></trkpt>
        <trkpt lat="29.3739962" lon="104.7829624"><ele>297.1</ele><time>2026-01-16T19:12:36.000Z</time></trkpt>
        <trkpt lat="29.3740582" lon="104.7830431"><ele>297.87</ele><time>2026-01-16T19:12:50.000Z</time></trkpt>
        <trkpt lat="29.3741232" lon="104.7831201"><ele>298.19</ele><time>2026-01-16T19:13:06.000Z</time></trkpt>
        <trkpt lat="29.3741877" lon="104.7832062"><ele>298.32</ele><time>2026-01-16T19:14:00.000Z</time></trkpt>
        <trkpt lat="29.3742384" lon="104.7833016"><ele>298.7</ele><time>2026-01-16T19:14:12.000Z</time></trkpt>
        <trkpt lat="29.3742981" lon="104.7833897"><ele>298.57</ele><time>2026-01-16T19:14:20.000Z</time></trkpt>
        <trkpt lat="29.3743769" lon="104.7834681"><ele>298.8</ele><time>2026-01-16T19:14:30.000Z</time></trkpt>
        <trkpt lat="29.3744664" lon="104.7835378"><ele>298.84</ele><time>2026-01-16T19:14:44.000Z</time></trkpt>
        <trkpt lat="29.3745512" lon="104.7836049"><ele>299.43</ele><time>2026-01-16T19:14:52.000Z</time></trkpt>
        <trkpt lat="29.3746118" lon="104.7836856"><ele>300.23</ele><time>2026-01-16T19:15:02.000Z</time></trkpt>
        <trkpt lat="29.3746709" lon="104.7837642"><ele>300.95</ele><time>2026-01-16T19:15:10.000Z</time></trkpt>
        <trkpt lat="29.3747304" lon="104.7838567"><ele>301.4</ele><time>2026-01-16T19:15:18.000Z</time></trkpt>
        <trkpt lat="29.3747645" lon="104.7839578"><ele>300.67</ele><time>2026-01-16T19:15:38.000Z</time></trkpt>
        <trkpt lat="29.374841" lon="104.7840375"><ele>299.82</ele><time>2026-01-16T19:15:48.000Z</time></trkpt>
        <trkpt lat="29.3749258" lon="104.7841097"><ele>299.64</ele><time>2026-01-16T19:15:58.000Z</time></trkpt>
        <trkpt lat="29.3749871" lon="104.7841924"><ele>299.58</ele><time>2026-01-16T19:16:08.000Z</time></trkpt>
        <trkpt lat="29.375001" lon="104.7842934"><ele>299.59</ele><time>2026-01-16T19:16:24.000Z</time></trkpt>
        <trkpt lat="29.3750308" lon="104.7843935"><ele>299.38</ele><time>2026-01-16T19:16:44.000Z</time></trkpt>
        <trkpt lat="29.3750781" lon="104.7844846"><ele>299.65</ele><time>2026-01-16T19:16:54.000Z</time></trkpt>
        <trkpt lat="29.3751199" lon="104.7845845"><ele>300.14</ele><time>2026-01-16T19:17:06.000Z</time></trkpt>
        <trkpt lat="29.3751466" lon="104.784694"><ele>300</ele><time>2026-01-16T19:17:50.000Z</time></trkpt>
        <trkpt lat="29.3751" lon="104.7847983"><ele>298.84</ele><time>2026-01-16T19:19:24.000Z</time></trkpt>
        <trkpt lat="29.3750817" lon="104.7849033"><ele>299.34</ele><time>2026-01-16T19:19:36.000Z</time></trkpt>
        <trkpt lat="29.3750394" lon="104.7849985"><ele>300.1</ele><time>2026-01-16T19:19:46.000Z</time></trkpt>
        <trkpt lat="29.3749838" lon="104.7850854"><ele>301.04</ele><time>2026-01-16T19:20:00.000Z</time></trkpt>
        <trkpt lat="29.3748976" lon="104.7851284"><ele>303.95</ele><time>2026-01-16T19:20:16.000Z</time></trkpt>
        <trkpt lat="29.3748575" lon="104.7852109"><ele>305.69</ele><time>2026-01-16T19:20:50.000Z</time></trkpt>
        <trkpt lat="29.3748827" lon="104.785159"><ele>306.86</ele><time>2026-01-16T19:21:22.000Z</time></trkpt>
        <trkpt lat="29.3749418" lon="104.7850661"><ele>306.1</ele><time>2026-01-16T19:21:34.000Z</time></trkpt>
        <trkpt lat="29.3750229" lon="104.7849839"><ele>304.64</ele><time>2026-01-16T19:21:44.000Z</time></trkpt>
        <trkpt lat="29.3751066" lon="104.7849141"><ele>302.6</ele><time>2026-01-16T19:21:52.000Z</time></trkpt>
        <trkpt lat="29.3751979" lon="104.7848803"><ele>301.14</ele><time>2026-01-16T19:22:00.000Z</time></trkpt>
        <trkpt lat="29.3752938" lon="104.7849004"><ele>299.79</ele><time>2026-01-16T19:22:08.000Z</time></trkpt>
        <trkpt lat="29.3753925" lon="104.7849598"><ele>298.55</ele><time>2026-01-16T19:22:18.000Z</time></trkpt>
        <trkpt lat="29.3754874" lon="104.785011"><ele>297.19</ele><time>2026-01-16T19:22:30.000Z</time></trkpt>
        <trkpt lat="29.3755877" lon="104.7850275"><ele>296.59</ele><time>2026-01-16T19:22:58.000Z</time></trkpt>
        <trkpt lat="29.3756698" lon="104.7850771"><ele>297.41</ele><time>2026-01-16T19:23:14.000Z</time></trkpt>
        <trkpt lat="29.3757511" lon="104.7851248"><ele>297.88</ele><time>2026-01-16T19:23:28.000Z</time></trkpt>
        <trkpt lat="29.375838" lon="104.7851642"><ele>298.19</ele><time>2026-01-16T19:23:42.000Z</time></trkpt>
        <trkpt lat="29.3759211" lon="104.78521"><ele>297.98</ele><time>2026-01-16T19:23:52.000Z</time></trkpt>
        <trkpt lat="29.376014" lon="104.785247"><ele>297.47</ele><time>2026-01-16T19:24:02.000Z</time></trkpt>
        <trkpt lat="29.3761132" lon="104.7852856"><ele>297.48</ele><time>2026-01-16T19:24:12.000Z</time></trkpt>
        <trkpt lat="29.3762104" lon="104.7853075"><ele>297.62</ele><time>2026-01-16T19:24:26.000Z</time></trkpt>
        <trkpt lat="29.37613" lon="104.785355"><ele>298.17</ele><time>2026-01-16T19:25:40.000Z</time></trkpt>
        <trkpt lat="29.3761217" lon="104.7854667"><ele>299.73</ele><time>2026-01-16T19:26:00.000Z</time></trkpt>
        <trkpt lat="29.3761091" lon="104.7855727"><ele>301.95</ele><time>2026-01-16T19:26:14.000Z</time></trkpt>
        <trkpt lat="29.3760816" lon="104.785688"><ele>303.61</ele><time>2026-01-16T19:26:28.000Z</time></trkpt>
        <trkpt lat="29.3760169" lon="104.7857611"><ele>306.4</ele><time>2026-01-16T19:26:46.000Z</time></trkpt>
        <trkpt lat="29.3759717" lon="104.7858537"><ele>309.41</ele><time>2026-01-16T19:27:00.000Z</time></trkpt>
        <trkpt lat="29.3759762" lon="104.7859543"><ele>310.61</ele><time>2026-01-16T19:27:10.000Z</time></trkpt>
        <trkpt lat="29.3760115" lon="104.7860515"><ele>309.96</ele><time>2026-01-16T19:27:42.000Z</time></trkpt>
        <trkpt lat="29.3759442" lon="104.7861008"><ele>310.67</ele><time>2026-01-16T19:27:52.000Z</time></trkpt>
        <trkpt lat="29.3760033" lon="104.7860217"><ele>311.63</ele><time>2026-01-16T19:30:28.000Z</time></trkpt>
        <trkpt lat="29.375955" lon="104.78593"><ele>310.2</ele><time>2026-01-16T19:30:40.000Z</time></trkpt>
        <trkpt lat="29.3759574" lon="104.7858158"><ele>307.57</ele><time>2026-01-16T19:30:50.000Z</time></trkpt>
        <trkpt lat="29.3759804" lon="104.7857053"><ele>305.22</ele><time>2026-01-16T19:30:58.000Z</time></trkpt>
        <trkpt lat="29.3760089" lon="104.7856021"><ele>304.39</ele><time>2026-01-16T19:31:04.000Z</time></trkpt>
        <trkpt lat="29.3760718" lon="104.7855205"><ele>305.56</ele><time>2026-01-16T19:31:12.000Z</time></trkpt>
        <trkpt lat="29.3761283" lon="104.7854266"><ele>306.22</ele><time>2026-01-16T19:31:22.000Z</time></trkpt>
        <trkpt lat="29.3762161" lon="104.7853607"><ele>304.19</ele><time>2026-01-16T19:31:32.000Z</time></trkpt>
        <trkpt lat="29.3763192" lon="104.7853501"><ele>303.03</ele><time>2026-01-16T19:31:42.000Z</time></trkpt>
        <trkpt lat="29.3764156" lon="104.7853995"><ele>302.59</ele><time>2026-01-16T19:31:52.000Z</time></trkpt>
        <trkpt lat="29.3765125" lon="104.7854482"><ele>301.39</ele><time>2026-01-16T19:32:04.000Z</time></trkpt>
        <trkpt lat="29.3766001" lon="104.7855125"><ele>302.3</ele><time>2026-01-16T19:32:16.000Z</time></trkpt>
        <trkpt lat="29.3766801" lon="104.7855886"><ele>302.21</ele><time>2026-01-16T19:32:28.000Z</time></trkpt>
        <trkpt lat="29.3767639" lon="104.7856479"><ele>303.24</ele><time>2026-01-16T19:32:40.000Z</time></trkpt>
        <trkpt lat="29.3768271" lon="104.7857329"><ele>302.88</ele><time>2026-01-16T19:32:54.000Z</time></trkpt>
        <trkpt lat="29.3768629" lon="104.7858323"><ele>302.46</ele><time>2026-01-16T19:33:22.000Z</time></trkpt>
        <trkpt lat="29.3768948" lon="104.7859329"><ele>303.29</ele><time>2026-01-16T19:33:34.000Z</time></trkpt>
        <trkpt lat="29.3768886" lon="104.7860375"><ele>303.81</ele><time>2026-01-16T19:33:44.000Z</time></trkpt>
        <trkpt lat="29.3768272" lon="104.7861414"><ele>305.7</ele><time>2026-01-16T19:33:58.000Z</time></trkpt>
        <trkpt lat="29.3767573" lon="104.7862355"><ele>308.67</ele><time>2026-01-16T19:34:08.000Z</time></trkpt>
        <trkpt lat="29.3766737" lon="104.7863107"><ele>310.92</ele><time>2026-01-16T19:34:24.000Z</time></trkpt>
        <trkpt lat="29.3766205" lon="104.786407"><ele>311.13</ele><time>2026-01-16T19:34:34.000Z</time></trkpt>
        <trkpt lat="29.3765444" lon="104.7864908"><ele>312.23</ele><time>2026-01-16T19:34:48.000Z</time></trkpt>
        <trkpt lat="29.3764482" lon="104.7865459"><ele>313.29</ele><time>2026-01-16T19:34:56.000Z</time></trkpt>
        <trkpt lat="29.3763532" lon="104.7865495"><ele>313.04</ele><time>2026-01-16T19:35:04.000Z</time></trkpt>
        <trkpt lat="29.3762552" lon="104.7865436"><ele>312.81</ele><time>2026-01-16T19:35:18.000Z</time></trkpt>
        <trkpt lat="29.376192" lon="104.7864716"><ele>313.15</ele><time>2026-01-16T19:35:32.000Z</time></trkpt>
        <trkpt lat="29.3761108" lon="104.7864369"><ele>314.55</ele><time>2026-01-16T19:35:48.000Z</time></trkpt>
        <trkpt lat="29.3760227" lon="104.7864145"><ele>314.83</ele><time>2026-01-16T19:35:58.000Z</time></trkpt>
        <trkpt lat="29.3759398" lon="104.7863721"><ele>316.24</ele><time>2026-01-16T19:36:50.000Z</time></trkpt>
        <trkpt lat="29.3758491" lon="104.7863709"><ele>318.37</ele><time>2026-01-16T19:37:38.000Z</time></trkpt>
        <trkpt lat="29.3757506" lon="104.7863519"><ele>323.16</ele><time>2026-01-16T19:38:14.000Z</time></trkpt>
        <trkpt lat="29.3757272" lon="104.786337"><ele>326.45</ele><time>2026-01-16T19:38:22.000Z</time></trkpt>
        <trkpt lat="29.3756631" lon="104.7863626"><ele>327.8</ele><time>2026-01-16T19:38:40.000Z</time></trkpt>
        <trkpt lat="29.3755539" lon="104.7863714"><ele>327.11</ele><time>2026-01-16T19:38:50.000Z</time></trkpt>
        <trkpt lat="29.3754462" lon="104.7863918"><ele>326.42</ele><time>2026-01-16T19:39:00.000Z</time></trkpt>
        <trkpt lat="29.375349" lon="104.7864261"><ele>327.96</ele><time>2026-01-16T19:39:20.000Z</time></trkpt>
        <trkpt lat="29.3752557" lon="104.7864848"><ele>331.2</ele><time>2026-01-16T19:39:38.000Z</time></trkpt>
        <trkpt lat="29.3751677" lon="104.7865286"><ele>331.63</ele><time>2026-01-16T19:40:04.000Z</time></trkpt>
        <trkpt lat="29.3750941" lon="104.7866139"><ele>331.45</ele><time>2026-01-16T19:40:18.000Z</time></trkpt>
        <trkpt lat="29.3749977" lon="104.7866727"><ele>331.51</ele><time>2026-01-16T19:40:26.000Z</time></trkpt>
        <trkpt lat="29.3748996" lon="104.7867221"><ele>330.6</ele><time>2026-01-16T19:40:36.000Z</time></trkpt>
        <trkpt lat="29.3748053" lon="104.7867731"><ele>329.96</ele><time>2026-01-16T19:40:44.000Z</time></trkpt>
        <trkpt lat="29.3747116" lon="104.7867752"><ele>330.28</ele><time>2026-01-16T19:40:54.000Z</time></trkpt>
        <trkpt lat="29.3747535" lon="104.7868036"><ele>330.76</ele><time>2026-01-16T19:41:22.000Z</time></trkpt>
        <trkpt lat="29.3747121" lon="104.7867768"><ele>329.83</ele><time>2026-01-16T19:41:42.000Z</time></trkpt>
        <trkpt lat="29.3747693" lon="104.7867248"><ele>328.44</ele><time>2026-01-16T19:42:18.000Z</time></trkpt>
        <trkpt lat="29.374862" lon="104.7867017"><ele>327.78</ele><time>2026-01-16T19:42:28.000Z</time></trkpt>
        <trkpt lat="29.3749588" lon="104.7866584"><ele>327.66</ele><time>2026-01-16T19:42:42.000Z</time></trkpt>
        <trkpt lat="29.3750424" lon="104.7865964"><ele>328.24</ele><time>2026-01-16T19:42:52.000Z</time></trkpt>
        <trkpt lat="29.3751173" lon="104.7865187"><ele>328.35</ele><time>2026-01-16T19:43:06.000Z</time></trkpt>
        <trkpt lat="29.375187" lon="104.7864344"><ele>327.25</ele><time>2026-01-16T19:43:16.000Z</time></trkpt>
        <trkpt lat="29.375275" lon="104.7863769"><ele>326.89</ele><time>2026-01-16T19:43:28.000Z</time></trkpt>
        <trkpt lat="29.37537" lon="104.786343"><ele>327.71</ele><time>2026-01-16T19:43:36.000Z</time></trkpt>
        <trkpt lat="29.37537" lon="104.786343"><ele>327.71</ele><time>2026-01-16T19:43:36.000Z</time></trkpt>
      </trkseg>
  </trk>
</gpx>